Time;durP1;ratioP1;P1;durP2;ratioP2;P2;SDS_P1;SDS_P2;PMS_P1;PMS_P2;Temp;Humidity;BMP_temperature;BMP_pressure;BME280_temperature;BME280_humidity;BME280_pressure;Samples;Min_cycle;Max_cycle;Signal;HPM_P1;HPM_P2
2022/04/18 00:02:12;;;;;;;18.00;9.52;;;7.10;93.10;;;;;;4992939;28;20046;-79
2022/04/18 00:04:37;;;;;;;15.85;10.27;;;7.10;93.50;;;;;;4993037;28;20046;-79
2022/04/18 00:07:04;;;;;;;15.32;9.00;;;7.00;93.90;;;;;;4976560;28;20042;-79
2022/04/18 00:09:30;;;;;;;17.92;9.93;;;7.00;94.00;;;;;;5024743;28;20046;-79
2022/04/18 00:11:57;;;;;;;16.85;9.93;;;7.00;94.50;;;;;;4976636;28;20109;-78
2022/04/18 00:14:23;;;;;;;16.05;9.48;;;6.90;94.60;;;;;;4992807;28;20057;-79
2022/04/18 00:16:49;;;;;;;18.65;10.20;;;7.00;94.70;;;;;;4992881;28;20053;-78
2022/04/18 00:19:14;;;;;;;18.90;10.77;;;6.90;94.90;;;;;;4995339;28;20422;-78
2022/04/18 00:21:40;;;;;;;15.13;9.57;;;6.90;94.80;;;;;;5019776;28;20094;-79
2022/04/18 00:24:05;;;;;;;19.98;10.60;;;6.90;95.30;;;;;;4998309;28;20146;-78
2022/04/18 00:26:31;;;;;;;15.73;9.25;;;6.90;95.10;;;;;;4992163;28;20030;-79
2022/04/18 00:28:57;;;;;;;20.15;10.93;;;6.90;95.60;;;;;;5025170;28;20133;-79
2022/04/18 00:31:22;;;;;;;20.50;10.18;;;6.90;95.50;;;;;;4992017;28;20053;-79
2022/04/18 00:33:48;;;;;;;15.27;9.25;;;6.80;95.70;;;;;;4976203;28;20045;-79
2022/04/18 00:36:13;;;;;;;16.58;9.02;;;6.80;96.20;;;;;;4992228;28;20054;-79
2022/04/18 00:38:40;;;;;;;17.52;9.77;;;6.80;96.30;;;;;;4976234;28;20081;-79
2022/04/18 00:41:06;;;;;;;17.55;10.48;;;6.80;96.50;;;;;;4991897;28;20042;-79
2022/04/18 00:43:42;;;;;;;23.42;10.73;;;6.70;96.60;;;;;;4992037;28;20046;-79
2022/04/18 00:46:09;;;;;;;16.75;9.57;;;6.70;97.70;;;;;;4992401;28;20078;-79
2022/04/18 00:48:35;;;;;;;17.38;10.02;;;6.70;97.00;;;;;;4991902;28;20034;-79
2022/04/18 00:51:02;;;;;;;17.98;10.38;;;6.70;97.10;;;;;;4991898;28;20046;-79
2022/04/18 00:53:28;;;;;;;17.05;10.85;;;6.60;97.40;;;;;;4975956;28;20074;-79
2022/04/18 00:55:54;;;;;;;18.80;10.73;;;6.60;97.40;;;;;;4991946;28;20413;-79
2022/04/18 00:58:20;;;;;;;21.05;10.23;;;6.60;97.60;;;;;;5024901;28;20052;-79
2022/04/18 01:00:45;;;;;;;14.95;9.25;;;6.60;98.00;;;;;;4991353;28;20046;-79
2022/04/18 01:03:11;;;;;;;16.15;10.30;;;6.60;98.10;;;;;;4992879;28;20048;-79
2022/04/18 01:05:37;;;;;;;16.23;10.57;;;6.50;98.20;;;;;;4993118;28;20412;-79
2022/04/18 01:08:04;;;;;;;15.25;9.38;;;6.50;98.90;;;;;;4992053;28;20049;-79
2022/04/18 01:10:30;;;;;;;19.15;10.45;;;6.50;99.20;;;;;;4975364;28;20038;-79
2022/04/18 01:12:56;;;;;;;19.92;10.57;;;6.50;99.20;;;;;;4991482;28;20038;-79
2022/04/18 01:15:21;;;;;;;18.67;10.95;;;6.40;99.50;;;;;;4991708;28;20089;-79
2022/04/18 01:17:47;;;;;;;21.15;11.80;;;6.40;99.40;;;;;;4991384;28;20042;-79
2022/04/18 01:20:12;;;;;;;20.73;12.02;;;6.40;99.80;;;;;;4992495;28;20506;-79
2022/04/18 01:22:38;;;;;;;19.10;11.63;;;6.40;99.80;;;;;;4991415;28;20042;-79
2022/04/18 01:30:33;;;;;;;18.50;11.13;;;6.30;99.90;;;;;;5024103;28;20054;-79
2022/04/18 01:32:58;;;;;;;17.52;10.50;;;6.30;99.90;;;;;;4974972;28;20551;-79
2022/04/18 01:35:24;;;;;;;18.38;10.65;;;6.30;99.80;;;;;;4991020;28;20043;-79
2022/04/18 01:37:49;;;;;;;18.48;11.43;;;6.30;99.90;;;;;;4975102;28;20046;-79
2022/04/18 01:40:15;;;;;;;19.52;11.48;;;6.30;99.90;;;;;;4974571;28;20049;-79
2022/04/18 01:42:40;;;;;;;18.20;10.25;;;6.30;99.90;;;;;;4990897;28;20042;-79
2022/04/18 01:45:07;;;;;;;19.33;11.10;;;6.20;99.90;;;;;;4991222;28;20397;-79
2022/04/18 01:47:32;;;;;;;20.80;10.35;;;6.20;99.90;;;;;;4974660;28;20034;-79
2022/04/18 01:49:58;;;;;;;15.82;10.68;;;6.30;99.90;;;;;;4974448;28;20037;-79
2022/04/18 01:52:23;;;;;;;18.40;11.70;;;6.20;99.90;;;;;;4992116;28;20049;-79
2022/04/18 01:54:49;;;;;;;20.83;10.73;;;6.20;99.90;;;;;;4990815;28;20642;-79
2022/04/18 01:57:14;;;;;;;17.73;11.00;;;6.20;99.90;;;;;;4990534;28;20050;-79
2022/04/18 01:59:42;;;;;;;16.70;10.35;;;6.10;99.90;;;;;;4974343;28;20053;-79
2022/04/18 02:02:08;;;;;;;18.23;10.73;;;6.10;99.90;;;;;;4990703;28;20073;-79
2022/04/18 02:04:34;;;;;;;17.35;10.40;;;6.00;99.90;;;;;;4990671;28;20080;-79
2022/04/18 02:07:00;;;;;;;22.70;11.02;;;6.00;99.90;;;;;;4990545;28;20046;-79
2022/04/18 02:09:25;;;;;;;20.48;11.32;;;5.90;99.90;;;;;;5023610;28;20053;-78
2022/04/18 02:11:51;;;;;;;16.20;10.27;;;5.90;99.90;;;;;;4974495;28;20054;-78
2022/04/18 02:14:17;;;;;;;20.17;11.30;;;5.90;99.90;;;;;;4991096;28;20081;-78
2022/04/18 02:16:43;;;;;;;16.52;10.73;;;5.90;99.90;;;;;;4990526;28;20046;-78
2022/04/18 02:19:08;;;;;;;19.85;11.15;;;5.80;99.90;;;;;;4990447;28;20105;-78
2022/04/18 02:21:34;;;;;;;23.00;12.00;;;5.80;99.90;;;;;;4990300;28;20124;-78
2022/04/18 02:23:59;;;;;;;19.52;11.70;;;5.70;99.90;;;;;;4990394;28;20129;-78
2022/04/18 02:26:25;;;;;;;18.25;11.73;;;5.70;99.90;;;;;;4990431;28;20129;-78
2022/04/18 02:28:50;;;;;;;20.73;11.05;;;5.70;99.90;;;;;;4990337;28;20046;-78
2022/04/18 02:31:16;;;;;;;17.75;11.43;;;5.70;99.90;;;;;;4991504;28;20052;-78
2022/04/18 02:33:41;;;;;;;18.60;11.90;;;5.70;99.90;;;;;;4994545;28;20053;-78
2022/04/18 02:36:07;;;;;;;19.75;11.35;;;5.70;99.90;;;;;;4994482;28;20065;-78
2022/04/18 02:38:33;;;;;;;17.65;10.98;;;5.70;99.90;;;;;;4994296;28;20049;-78
2022/04/18 02:40:58;;;;;;;21.90;12.02;;;5.60;99.90;;;;;;4977815;28;20118;-78
2022/04/18 02:43:24;;;;;;;19.13;10.32;;;5.60;99.90;;;;;;4994333;28;20130;-78
2022/04/18 02:45:49;;;;;;;19.92;11.13;;;5.50;99.90;;;;;;4994491;28;20045;-78
2022/04/18 02:48:15;;;;;;;23.30;12.05;;;5.50;99.90;;;;;;4994233;28;20588;-78
2022/04/18 02:50:40;;;;;;;20.98;11.65;;;5.50;99.90;;;;;;4994094;28;20454;-78
2022/04/18 02:53:06;;;;;;;21.75;11.82;;;5.50;99.90;;;;;;4994260;28;20117;-78
2022/04/18 02:55:31;;;;;;;18.88;11.70;;;5.40;99.90;;;;;;4995370;28;20038;-78
2022/04/18 02:57:57;;;;;;;22.42;11.45;;;5.40;99.90;;;;;;4994074;28;20042;-78
2022/04/18 03:00:23;;;;;;;22.42;12.27;;;5.40;99.90;;;;;;4994292;28;20421;-78
2022/04/18 03:02:48;;;;;;;19.73;12.43;;;5.20;99.90;;;;;;4993890;28;20042;-78
2022/04/18 03:05:14;;;;;;;27.17;12.98;;;5.30;99.90;;;;;;4994028;28;20042;-78
2022/04/18 03:07:40;;;;;;;20.73;12.80;;;5.20;99.90;;;;;;4993761;28;20034;-78
2022/04/18 03:10:06;;;;;;;20.77;12.55;;;5.20;99.90;;;;;;4994398;28;20117;-77
2022/04/18 03:12:32;;;;;;;26.48;12.57;;;5.10;99.90;;;;;;5021071;28;20022;-82
2022/04/18 03:14:57;;;;;;;25.83;12.45;;;5.10;99.90;;;;;;5015977;28;20085;-79
2022/04/18 03:17:23;;;;;;;22.83;13.18;;;5.10;99.90;;;;;;4993757;28;20038;-79
2022/04/18 03:19:49;;;;;;;21.60;12.70;;;5.10;99.90;;;;;;4993767;28;20552;-79
2022/04/18 03:22:14;;;;;;;25.50;12.82;;;5.00;99.90;;;;;;4995281;28;20053;-80
2022/04/18 03:24:40;;;;;;;23.83;12.25;;;5.00;99.90;;;;;;4993912;28;20049;-80
2022/04/18 03:27:06;;;;;;;20.08;11.57;;;5.00;99.90;;;;;;4993869;28;20209;-80
2022/04/18 03:29:31;;;;;;;22.40;12.48;;;5.00;99.90;;;;;;4993662;28;20046;-80
2022/04/18 03:31:58;;;;;;;23.10;12.30;;;5.00;99.90;;;;;;4995171;28;20049;-80
2022/04/18 03:34:25;;;;;;;25.63;12.95;;;5.00;99.90;;;;;;4993764;28;20058;-79
2022/04/18 03:42:29;;;;;;;20.50;11.80;;;5.00;99.90;;;;;;4994004;28;20049;-79
2022/04/18 03:44:55;;;;;;;21.98;12.38;;;4.90;99.90;;;;;;4977305;28;20092;-79
2022/04/18 03:47:20;;;;;;;20.83;11.52;;;4.90;99.90;;;;;;4993376;28;20102;-78
2022/04/18 03:49:46;;;;;;;20.27;11.80;;;4.90;99.90;;;;;;4992728;28;20537;-78
2022/04/18 03:52:11;;;;;;;21.88;12.52;;;4.90;99.90;;;;;;4976976;28;20111;-78
2022/04/18 03:54:39;;;;;;;19.73;11.82;;;4.80;99.90;;;;;;4993033;28;20057;-78
2022/04/18 03:57:05;;;;;;;25.35;12.52;;;4.80;99.90;;;;;;4993075;28;20552;-78
2022/04/18 03:59:31;;;;;;;17.15;11.45;;;4.80;99.90;;;;;;4992783;28;20070;-78
2022/04/18 04:01:56;;;;;;;20.45;12.52;;;4.80;99.90;;;;;;5025709;28;20386;-78
2022/04/18 04:04:22;;;;;;;23.77;10.93;;;4.80;99.90;;;;;;4992814;28;20093;-78
2022/04/18 04:06:47;;;;;;;20.88;11.13;;;4.70;99.90;;;;;;4992827;28;20405;-78
2022/04/18 04:09:13;;;;;;;20.17;11.75;;;4.60;99.90;;;;;;4993011;28;20044;-78
2022/04/18 04:11:38;;;;;;;21.38;11.43;;;4.60;99.90;;;;;;4976279;28;20042;-78
2022/04/18 04:14:04;;;;;;;21.75;11.48;;;4.60;99.90;;;;;;4992844;28;20050;-78
2022/04/18 04:16:30;;;;;;;24.98;12.32;;;4.60;99.90;;;;;;4992643;28;20050;-78
2022/04/18 04:18:56;;;;;;;24.20;12.30;;;4.50;99.90;;;;;;4993699;28;20093;-78
2022/04/18 04:21:21;;;;;;;20.75;12.43;;;4.50;99.90;;;;;;4992293;28;20034;-78
2022/04/18 04:23:47;;;;;;;22.58;12.02;;;4.50;99.90;;;;;;4992776;28;20046;-78
2022/04/18 04:26:13;;;;;;;23.90;11.88;;;4.50;99.90;;;;;;4992652;28;20039;-78
2022/04/18 04:28:38;;;;;;;20.52;11.73;;;4.50;99.90;;;;;;4992627;28;20121;-78
2022/04/18 04:31:04;;;;;;;20.75;11.70;;;4.50;99.90;;;;;;4992019;28;20077;-78
2022/04/18 04:33:30;;;;;;;22.40;12.45;;;4.50;99.90;;;;;;4992298;28;20069;-77
2022/04/18 04:35:58;;;;;;;19.50;11.38;;;4.50;99.90;;;;;;4992350;28;20057;-78
2022/04/18 04:38:27;;;;;;;21.38;12.35;;;4.50;99.90;;;;;;4993425;28;20387;-78
2022/04/18 04:40:53;;;;;;;19.13;13.02;;;4.50;99.90;;;;;;4991909;28;20042;-78
2022/04/18 04:43:27;;;;;;;21.08;12.10;;;4.50;99.90;;;;;;4992196;28;20042;-78
2022/04/18 04:45:55;;;;;;;19.77;11.45;;;4.50;99.90;;;;;;4975952;28;20157;-78
2022/04/18 04:48:21;;;;;;;22.25;11.57;;;4.50;99.90;;;;;;4991944;28;20042;-78
2022/04/18 04:50:47;;;;;;;21.73;12.32;;;4.50;99.90;;;;;;4992099;28;20101;-78
2022/04/18 04:53:12;;;;;;;20.98;12.43;;;4.60;99.90;;;;;;4992250;28;20498;-78
2022/04/18 04:55:38;;;;;;;23.80;12.10;;;4.60;99.90;;;;;;4991618;28;20474;-78
2022/04/18 04:58:04;;;;;;;18.85;12.50;;;4.70;99.90;;;;;;4992215;28;20053;-78
2022/04/18 05:00:30;;;;;;;22.05;11.77;;;5.00;99.90;;;;;;4991716;28;20034;-78
2022/04/18 05:02:56;;;;;;;19.38;11.25;;;5.30;99.90;;;;;;4975429;28;20042;-78
2022/04/18 05:05:22;;;;;;;23.50;13.18;;;5.60;99.90;;;;;;4991627;28;20169;-78
2022/04/18 05:07:47;;;;;;;17.90;10.82;;;6.00;99.90;;;;;;4991622;28;20121;-78
2022/04/18 05:10:13;;;;;;;17.60;10.85;;;6.20;99.90;;;;;;4991341;28;20049;-78
2022/04/18 05:12:39;;;;;;;17.50;10.65;;;6.40;99.90;;;;;;4992969;28;20116;-78
2022/04/18 05:15:06;;;;;;;23.63;11.75;;;6.50;99.90;;;;;;4991559;28;20046;-78
2022/04/18 05:17:31;;;;;;;24.27;11.65;;;6.40;99.90;;;;;;4991661;28;20061;-78
2022/04/18 05:19:57;;;;;;;19.05;11.88;;;6.40;99.90;;;;;;4974967;28;20042;-78
2022/04/18 05:22:23;;;;;;;15.27;11.07;;;6.40;99.90;;;;;;4975006;28;20449;-78
2022/04/18 05:24:49;;;;;;;18.83;11.63;;;6.40;99.90;;;;;;4991761;28;20047;-78
2022/04/18 05:27:15;;;;;;;16.95;10.75;;;6.40;99.90;;;;;;4991218;28;20073;-78
2022/04/18 05:29:44;;;;;;;19.52;11.23;;;6.50;99.90;;;;;;4990903;28;20080;-78
2022/04/18 05:32:11;;;;;;;18.50;11.32;;;6.50;99.90;;;;;;4991494;28;20049;-78
2022/04/18 05:34:37;;;;;;;20.75;10.52;;;6.70;99.90;;;;;;4992497;28;20042;-78
2022/04/18 05:37:02;;;;;;;16.10;10.35;;;6.90;99.90;;;;;;4991213;28;20560;-78
2022/04/18 05:39:28;;;;;;;21.33;10.98;;;6.80;99.90;;;;;;4992294;28;20049;-78
2022/04/18 05:41:56;;;;;;;20.63;11.48;;;6.70;99.90;;;;;;4991020;28;20030;-78
2022/04/18 05:44:22;;;;;;;19.27;10.63;;;6.80;99.90;;;;;;4990921;28;20039;-78
2022/04/18 05:46:47;;;;;;;19.05;9.80;;;6.80;99.90;;;;;;4991428;28;20042;-78
2022/04/18 05:49:13;;;;;;;17.20;10.00;;;6.90;99.90;;;;;;4974701;28;20046;-78
2022/04/18 05:51:38;;;;;;;19.58;10.05;;;6.90;99.90;;;;;;4990754;28;20413;-78
2022/04/18 05:54:04;;;;;;;19.23;10.13;;;7.00;99.90;;;;;;4974853;28;20038;-78
2022/04/18 05:56:30;;;;;;;14.43;9.50;;;7.10;99.90;;;;;;5008273;28;20025;-78
2022/04/18 05:58:57;;;;;;;16.42;9.20;;;7.40;99.90;;;;;;5001162;28;20054;-78
2022/04/18 06:01:22;;;;;;;16.02;9.48;;;7.60;99.90;;;;;;5000381;28;20093;-78
2022/04/18 06:03:48;;;;;;;24.05;9.90;;;7.90;99.90;;;;;;4974713;28;20049;-78
2022/04/18 06:06:14;;;;;;;18.05;11.45;;;7.90;99.10;;;;;;4989910;28;20038;-78
2022/04/18 06:08:40;;;;;;;15.57;9.80;;;8.00;98.30;;;;;;4990851;28;20042;-78
2022/04/18 06:11:05;;;;;;;16.27;8.85;;;8.00;97.40;;;;;;4990384;28;20061;-78
2022/04/18 06:13:32;;;;;;;17.98;9.13;;;8.00;96.80;;;;;;4990429;28;20049;-78
2022/04/18 06:15:57;;;;;;;15.75;9.43;;;7.90;96.80;;;;;;4974902;28;20058;-78
2022/04/18 06:18:23;;;;;;;15.18;9.55;;;7.90;97.00;;;;;;4990539;28;20061;-78
2022/04/18 06:20:49;;;;;;;16.00;9.55;;;8.00;96.30;;;;;;4973937;28;20042;-78
2022/04/18 06:23:16;;;;;;;15.30;9.27;;;8.10;96.10;;;;;;4990514;28;20042;-78
2022/04/18 06:25:44;;;;;;;16.42;9.25;;;8.20;94.90;;;;;;4990729;28;20458;-78
2022/04/18 06:28:12;;;;;;;19.52;9.20;;;8.30;94.60;;;;;;4990177;28;20038;-78
2022/04/18 06:30:38;;;;;;;16.10;9.48;;;8.30;94.10;;;;;;4990502;28;20129;-79
2022/04/18 06:33:04;;;;;;;19.63;9.57;;;8.40;93.60;;;;;;5023466;28;20082;-79
2022/04/18 06:35:29;;;;;;;20.15;9.05;;;8.60;92.40;;;;;;4990272;28;20126;-79
2022/04/18 06:37:55;;;;;;;15.35;8.80;;;8.60;91.50;;;;;;4991853;28;20078;-79
2022/04/18 06:40:20;;;;;;;15.57;9.80;;;8.70;90.70;;;;;;4990112;28;20049;-79
2022/04/18 06:42:46;;;;;;;15.13;9.25;;;8.80;90.50;;;;;;5007150;28;20069;-79
2022/04/18 06:45:12;;;;;;;19.02;9.93;;;8.90;90.30;;;;;;4990684;28;20058;-79
2022/04/18 06:47:37;;;;;;;16.08;9.55;;;9.20;89.60;;;;;;4990625;28;20140;-79
2022/04/18 06:50:08;;;;;;;14.32;8.60;;;9.40;89.70;;;;;;4974466;28;20433;-79
2022/04/18 06:52:41;;;;;;;14.25;8.70;;;9.70;89.60;;;;;;4991954;28;20498;-79
2022/04/18 06:55:08;;;;;;;13.95;8.80;;;10.20;85.30;;;;;;4974360;28;20054;-80
2022/04/18 06:57:34;;;;;;;13.77;8.50;;;10.60;86.00;;;;;;5006842;28;20093;-79
2022/04/18 07:00:00;;;;;;;15.40;8.73;;;10.80;84.60;;;;;;4990588;28;20050;-79
2022/04/18 07:02:25;;;;;;;14.93;8.52;;;10.80;80.00;;;;;;4990289;28;20058;-79
2022/04/18 07:04:51;;;;;;;13.88;8.30;;;10.80;78.90;;;;;;5023119;28;20069;-74
2022/04/18 07:07:17;;;;;;;15.25;8.48;;;10.70;77.70;;;;;;4991759;28;20045;-79
2022/04/18 07:09:42;;;;;;;16.83;9.45;;;10.70;77.40;;;;;;4990382;28;20038;-79
2022/04/18 07:12:08;;;;;;;17.90;8.38;;;11.00;76.80;;;;;;4990460;28;20042;-79
2022/04/18 07:14:38;;;;;;;16.80;8.65;;;11.40;76.60;;;;;;4975653;28;20402;-79
2022/04/18 07:17:04;;;;;;;16.13;8.80;;;12.00;72.80;;;;;;4992209;28;20057;-79
2022/04/18 07:19:31;;;;;;;16.45;8.50;;;12.70;71.90;;;;;;5011122;28;20043;-79
2022/04/18 07:21:57;;;;;;;16.05;9.10;;;13.40;70.80;;;;;;5027630;28;20046;-79
2022/04/18 07:24:23;;;;;;;14.75;8.50;;;13.90;68.60;;;;;;5029239;28;20042;-80
2022/04/18 07:26:49;;;;;;;16.17;9.55;;;14.40;67.20;;;;;;4996239;28;20117;-80
2022/04/18 07:29:15;;;;;;;14.23;9.63;;;15.10;66.00;;;;;;4980416;28;20046;-80
2022/04/18 07:31:40;;;;;;;13.05;8.68;;;15.70;64.40;;;;;;4995501;28;20053;-80
2022/04/18 07:34:06;;;;;;;14.65;9.30;;;16.10;62.50;;;;;;5027855;28;20042;-80
2022/04/18 07:36:33;;;;;;;12.85;8.98;;;16.30;61.00;;;;;;4979529;28;20089;-80
2022/04/18 07:38:59;;;;;;;16.38;9.77;;;16.20;60.00;;;;;;5029826;28;20089;-80
2022/04/18 07:41:29;;;;;;;14.00;10.30;;;16.40;59.40;;;;;;4998274;28;20047;-80
2022/04/18 07:43:57;;;;;;;15.15;10.15;;;16.60;58.10;;;;;;4981656;28;20038;-80
2022/04/18 07:46:23;;;;;;;15.32;10.18;;;17.00;57.60;;;;;;4980472;28;20038;-81
2022/04/18 07:48:51;;;;;;;15.48;10.50;;;17.10;57.20;;;;;;4994756;28;20039;-80
2022/04/18 07:51:36;;;;;;;18.35;10.07;;;17.10;56.40;;;;;;5028994;28;20126;-80
2022/04/18 07:54:06;;;;;;;14.35;9.73;;;17.20;56.70;;;;;;4995693;28;20386;-80
2022/04/18 07:56:32;;;;;;;14.85;9.82;;;17.50;55.00;;;;;;5027546;28;20117;-80
2022/04/18 07:58:58;;;;;;;13.80;9.25;;;17.80;56.10;;;;;;4994151;28;20133;-79
2022/04/18 08:01:23;;;;;;;14.77;10.23;;;18.10;55.50;;;;;;4994114;28;20046;-80
2022/04/18 08:03:50;;;;;;;18.48;11.73;;;18.30;54.60;;;;;;4977220;28;20053;-79
2022/04/18 08:06:16;;;;;;;16.13;10.02;;;18.40;53.10;;;;;;4993393;28;20042;-80
2022/04/18 08:08:42;;;;;;;17.88;9.40;;;18.50;52.70;;;;;;4993282;28;20385;-80
2022/04/18 08:11:11;;;;;;;13.13;9.52;;;18.50;52.50;;;;;;5025583;28;20050;-80
2022/04/18 08:13:38;;;;;;;13.43;9.93;;;18.60;52.20;;;;;;4994577;28;20039;-80
2022/04/18 08:16:04;;;;;;;14.98;10.15;;;18.90;52.60;;;;;;4994443;28;20042;-80
2022/04/18 08:18:30;;;;;;;15.13;9.02;;;18.90;51.60;;;;;;4993754;28;20043;-79
2022/04/18 08:20:56;;;;;;;15.00;9.25;;;19.10;51.20;;;;;;4993043;28;20615;-79
2022/04/18 08:23:21;;;;;;;14.27;9.30;;;19.30;51.10;;;;;;5026232;28;20078;-80
2022/04/18 08:25:47;;;;;;;12.70;8.25;;;19.40;51.40;;;;;;4995215;28;20085;-80
2022/04/18 08:28:13;;;;;;;11.70;7.32;;;19.20;50.20;;;;;;5026498;28;20085;-80
2022/04/18 08:30:39;;;;;;;12.20;7.55;;;19.30;49.60;;;;;;5010553;28;20035;-79
2022/04/18 08:33:04;;;;;;;11.73;7.38;;;19.40;49.40;;;;;;4976971;28;20112;-80
2022/04/18 08:35:32;;;;;;;11.25;7.95;;;19.60;49.20;;;;;;5026375;28;20058;-80
2022/04/18 08:37:59;;;;;;;8.95;6.72;;;19.70;48.50;;;;;;5026279;28;20081;-80
2022/04/18 08:40:24;;;;;;;9.85;6.78;;;19.80;48.10;;;;;;4993507;28;20062;-80
2022/04/18 08:42:55;;;;;;;9.07;6.82;;;19.80;47.90;;;;;;4992680;28;20556;-80
2022/04/18 08:45:23;;;;;;;11.23;6.85;;;19.80;47.10;;;;;;5025515;28;20499;-80
2022/04/18 08:53:26;;;;;;;11.00;6.43;;;19.70;46.60;;;;;;5027033;28;20078;-79
2022/04/18 08:55:52;;;;;;;10.30;6.90;;;19.90;46.60;;;;;;4995868;28;20117;-80
2022/04/18 08:58:18;;;;;;;8.40;6.78;;;19.90;46.80;;;;;;4996726;28;20496;-80
2022/04/18 09:00:44;;;;;;;9.43;6.47;;;19.70;47.20;;;;;;4996919;28;20038;-80
2022/04/18 09:03:10;;;;;;;12.02;7.13;;;19.70;46.80;;;;;;4994532;28;20441;-80
2022/04/18 09:05:39;;;;;;;12.25;6.38;;;20.00;46.30;;;;;;4994517;28;20050;-80
2022/04/18 09:08:07;;;;;;;11.00;6.70;;;20.10;45.70;;;;;;4992966;28;20050;-80
2022/04/18 09:10:37;;;;;;;10.02;7.40;;;20.00;46.60;;;;;;5025590;28;20374;-80
2022/04/18 09:13:11;;;;;;;8.30;6.40;;;19.90;46.60;;;;;;4992975;28;20042;-80
2022/04/18 09:15:37;;;;;;;11.85;6.13;;;20.30;47.20;;;;;;5009013;28;20451;-81
2022/04/18 09:18:20;;;;;;;10.45;6.65;;;20.50;47.30;;;;;;4992542;28;20050;-80
2022/04/18 09:20:55;;;;;;;9.88;6.85;;;20.60;45.80;;;;;;5006526;28;20090;-80
2022/04/18 09:23:34;;;;;;;10.40;6.72;;;20.40;45.20;;;;;;5012990;28;20049;-81
2022/04/18 09:26:10;;;;;;;9.60;6.72;;;20.40;45.60;;;;;;5007254;28;20147;-81
2022/04/18 09:28:40;;;;;;;9.23;6.60;;;20.50;45.90;;;;;;5024690;28;20427;-81
2022/04/18 09:31:10;;;;;;;8.93;6.53;;;20.80;46.50;;;;;;4975294;28;20093;-81
2022/04/18 09:33:45;;;;;;;9.32;6.78;;;21.00;46.00;;;;;;5003032;28;20038;-80
2022/04/18 09:36:17;;;;;;;11.00;6.47;;;21.00;43.90;;;;;;4998258;28;20096;-81
2022/04/18 09:38:55;;;;;;;8.73;6.63;;;21.10;45.30;;;;;;5005096;28;20038;-81
2022/04/18 09:41:27;;;;;;;9.25;6.63;;;21.00;44.60;;;;;;5003972;28;20038;-81
2022/04/18 09:43:54;;;;;;;7.50;5.82;;;21.00;43.70;;;;;;4994518;28;20046;-81
2022/04/18 09:46:20;;;;;;;9.75;6.95;;;21.10;45.00;;;;;;4996360;28;20076;-81
2022/04/18 09:48:48;;;;;;;9.48;6.35;;;21.20;45.20;;;;;;4997348;28;20053;-80
2022/04/18 09:51:26;;;;;;;9.57;6.20;;;21.40;45.10;;;;;;4996193;28;20125;-80
2022/04/18 09:53:58;;;;;;;8.30;6.35;;;21.60;42.10;;;;;;4991758;28;20125;-81
2022/04/18 09:56:26;;;;;;;11.13;6.50;;;21.70;42.70;;;;;;4991624;28;20142;-80
2022/04/18 09:58:53;;;;;;;11.85;6.82;;;21.70;43.60;;;;;;4998478;28;20046;-81
2022/04/18 10:01:19;;;;;;;9.65;6.82;;;21.80;44.30;;;;;;4991086;28;20030;-81
2022/04/18 10:03:46;;;;;;;13.50;6.13;;;22.00;44.30;;;;;;4993943;28;20049;-82
2022/04/18 10:06:12;;;;;;;10.40;6.47;;;22.10;44.90;;;;;;4998567;28;20034;-80
2022/04/18 10:08:38;;;;;;;8.52;6.82;;;22.20;44.30;;;;;;4991493;28;20070;-81
2022/04/18 10:11:07;;;;;;;11.07;6.70;;;22.10;43.50;;;;;;4990317;28;20040;-81
2022/04/18 10:13:35;;;;;;;8.07;6.30;;;22.20;43.30;;;;;;5003737;28;20038;-81
2022/04/18 10:16:00;;;;;;;9.60;6.65;;;22.00;44.30;;;;;;5008415;28;20057;-81
2022/04/18 10:18:28;;;;;;;9.80;6.35;;;21.80;43.90;;;;;;4992796;28;20134;-82
2022/04/18 10:21:04;;;;;;;10.07;5.93;;;21.60;44.40;;;;;;4975888;28;20035;-81
2022/04/18 10:23:42;;;;;;;7.82;5.88;;;21.50;44.30;;;;;;4976771;28;20038;-81
2022/04/18 10:26:34;;;;;;;8.63;6.32;;;21.50;44.40;;;;;;5005736;28;20125;-81
2022/04/18 10:29:07;;;;;;;7.80;6.13;;;21.40;43.40;;;;;;4999365;28;20374;-81
2022/04/18 10:31:37;;;;;;;7.93;5.40;;;21.20;43.70;;;;;;4991187;28;20054;-80
2022/04/18 10:34:04;;;;;;;8.85;5.20;;;21.00;43.70;;;;;;4994068;28;20279;-81
2022/04/18 10:36:31;;;;;;;9.98;5.95;;;21.10;44.10;;;;;;4991657;28;20401;-81
2022/04/18 10:39:02;;;;;;;9.18;5.63;;;21.00;43.70;;;;;;4991405;28;20046;-81
2022/04/18 10:41:45;;;;;;;10.07;5.80;;;20.90;43.60;;;;;;4980299;28;20038;-81
2022/04/18 10:44:15;;;;;;;8.80;5.68;;;20.80;42.90;;;;;;4999732;28;20120;-81
2022/04/18 10:46:57;;;;;;;7.75;4.20;;;20.80;43.20;;;;;;4984632;28;20030;-81
2022/04/18 10:49:24;;;;;;;10.52;6.50;;;20.70;41.20;;;;;;5001739;28;20082;-81
2022/04/18 10:51:52;;;;;;;8.07;5.53;;;20.80;42.90;;;;;;4993497;28;20046;-82
2022/04/18 10:54:23;;;;;;;7.40;4.95;;;20.90;42.20;;;;;;4999303;28;20049;-82
2022/04/18 10:56:57;;;;;;;7.50;4.53;;;20.90;42.70;;;;;;5004320;28;20046;-81
2022/04/18 11:23:26;;;;;;;6.82;4.75;;;20.90;39.50;;;;;;4951661;28;20047;-81
2022/04/18 11:26:30;;;;;;;7.55;4.70;;;20.90;40.50;;;;;;4976838;28;20041;-81
2022/04/18 11:29:29;;;;;;;8.32;4.35;;;20.80;40.80;;;;;;5022323;28;20049;-81
2022/04/18 11:32:46;;;;;;;7.10;4.50;;;20.70;38.60;;;;;;4942675;29;20051;-81
2022/04/18 11:35:54;;;;;;;6.40;3.88;;;20.50;39.90;;;;;;4941931;29;20519;-81
2022/04/18 11:50:40;;;;;;;11.77;4.57;;;20.90;40.10;;;;;;4924786;29;20062;-81
2022/04/18 12:09:43;;;;;;;6.05;4.00;;;21.60;41.00;;;;;;4994726;28;20054;-81
2022/04/18 12:12:43;;;;;;;4.97;3.78;;;21.50;40.00;;;;;;4996988;28;20093;-81
2022/04/18 12:15:38;;;;;;;6.07;4.05;;;21.40;38.50;;;;;;4986210;28;20066;-81
2022/04/18 12:18:31;;;;;;;6.63;3.95;;;21.10;38.00;;;;;;5014429;28;20417;-82
2022/04/18 12:21:02;;;;;;;5.63;3.70;;;20.90;39.60;;;;;;4994336;28;20065;-81
2022/04/18 12:24:00;;;;;;;3.90;3.20;;;21.00;39.50;;;;;;4981977;28;20121;-81
2022/04/18 12:26:38;;;;;;;6.30;3.50;;;20.90;39.00;;;;;;4980528;28;20042;-81
2022/04/18 12:32:41;;;;;;;4.65;3.38;;;20.70;39.40;;;;;;4980105;28;20097;-81
2022/04/18 12:38:58;;;;;;;5.47;2.95;;;20.70;38.90;;;;;;5108551;23;20053;-81
2022/04/18 12:42:23;;;;;;;5.75;2.97;;;20.70;39.20;;;;;;5000710;28;20049;-81
2022/04/18 12:48:14;;;;;;;6.65;3.50;;;20.70;39.70;;;;;;5040936;23;20060;-82
2022/04/18 13:01:26;;;;;;;3.08;2.70;;;21.60;39.70;;;;;;5050932;23;20505;-81
2022/04/18 13:15:56;;;;;;;4.45;3.38;;;21.10;40.10;;;;;;5033387;28;20041;-82
2022/04/18 13:18:26;;;;;;;5.25;3.08;;;21.20;40.80;;;;;;5002097;28;20109;-82
2022/04/18 13:24:55;;;;;;;3.72;2.90;;;21.10;37.60;;;;;;4952578;29;20062;-82
2022/04/18 13:27:47;;;;;;;5.03;3.22;;;21.20;38.90;;;;;;4932473;29;20764;-82
2022/04/18 13:30:35;;;;;;;;;;;21.30;37.70;;;;;;4920407;29;20066;-82
2022/04/18 13:33:46;;;;;;;5.63;3.25;;;21.40;38.80;;;;;;4928777;29;20348;-82
2022/04/18 13:36:38;;;;;;;4.85;3.42;;;21.40;37.80;;;;;;4924753;29;20047;-82
2022/04/18 13:39:09;;;;;;;4.25;2.92;;;21.30;39.20;;;;;;4940006;28;20058;-81
2022/04/18 13:45:52;;;;;;;4.78;3.40;;;21.20;37.90;;;;;;5014187;28;20045;-82
2022/04/18 13:56:04;;;;;;;6.88;3.65;;;21.10;39.10;;;;;;5039231;23;20057;-83
2022/04/18 14:01:02;;;;;;;3.80;2.75;;;20.90;38.30;;;;;;4972975;28;20101;-81
2022/04/18 14:03:27;;;;;;;4.82;2.88;;;20.90;38.50;;;;;;4956768;28;20434;-79
2022/04/18 14:05:54;;;;;;;4.20;3.22;;;20.90;38.30;;;;;;4955627;28;20035;-79
2022/04/18 14:08:20;;;;;;;4.10;3.22;;;20.80;38.70;;;;;;4986774;28;20042;-80
2022/04/18 14:10:46;;;;;;;6.85;3.20;;;20.70;38.50;;;;;;4955358;28;20043;-80
2022/04/18 14:13:11;;;;;;;5.88;2.97;;;20.70;39.20;;;;;;4955470;28;20042;-80
2022/04/18 14:21:06;;;;;;;4.15;3.40;;;21.20;39.80;;;;;;4955381;28;20081;-79
2022/04/18 14:23:31;;;;;;;4.15;3.20;;;21.40;40.10;;;;;;4955548;28;20074;-79
2022/04/18 14:25:57;;;;;;;4.43;3.50;;;21.40;39.90;;;;;;4939907;28;20039;-80
2022/04/18 14:28:23;;;;;;;6.45;3.78;;;21.40;40.00;;;;;;4954774;28;20045;-79
2022/04/18 14:30:49;;;;;;;4.82;3.53;;;21.30;39.60;;;;;;4955397;28;20043;-79
2022/04/18 14:33:15;;;;;;;5.95;3.78;;;21.40;39.40;;;;;;4955858;28;20126;-79
2022/04/18 14:35:41;;;;;;;5.95;3.83;;;21.50;39.00;;;;;;4955482;28;20039;-79
2022/04/18 14:38:07;;;;;;;4.40;3.70;;;21.40;38.80;;;;;;4971970;28;20106;-79
2022/04/18 14:40:32;;;;;;;5.00;3.60;;;21.30;38.90;;;;;;4955329;28;20406;-80
2022/04/18 14:42:58;;;;;;;4.90;3.45;;;21.30;38.80;;;;;;4955067;28;20126;-80
2022/04/18 14:45:24;;;;;;;6.60;3.17;;;21.20;38.90;;;;;;4973326;28;20417;-80
2022/04/18 14:47:49;;;;;;;5.00;4.05;;;21.10;39.10;;;;;;4955134;28;20038;-80
2022/04/18 14:50:16;;;;;;;5.05;4.00;;;20.90;38.90;;;;;;4954743;28;20050;-79
2022/04/18 14:52:42;;;;;;;4.35;3.60;;;20.90;38.80;;;;;;4955089;28;20046;-81
2022/04/18 14:55:08;;;;;;;5.65;3.67;;;20.80;39.10;;;;;;4955363;28;20046;-80